logo
Search for airport 
image banner adimage banner adimage banner ad
image banner ad

EPPK - Poznan/Kobylnica

Located in , Poland

ICAO - EPPK, IATA -

Data provided by Airmate  

General information

Coordinates: N52°26'2" E17°2'38"
Elevation is 281 feet MSL.
Magnetic variation is 4.0000° East
View others Airports in Greater Poland

Operational data

Special qualification required
Current time UTC:
Current local time:
Weather at : EPKS - Poznan/Krzesiny ( 12 km )
TAF: TAF EPKS 231700Z 2318/2406 08008KT 9999 BKN013 OVC050 BECMG 2320/2322 4000 -RA BR BKN009 OVC013 TEMPO 2401/2406 2000 RADZ OVC004 BECMG 2404/2406 30010KT
View NOTAMs / SUP AIP / TFR affecting this airport [VIEW]
Communications frequencies: [VIEW]

Runways:

RWY identifierQFULength (ft)Width (ft)SurfaceLDA (ft)
0768°2461328GRASS2461
25248°2461328GRASS2461
0220°1804656GRASS1804
20200°1804656GRASS1804

Airport contact information

Address: Poland

Other aviation service providers

Aviation club (not for profit)

Aeroklub Poznański

Aeroklub Poznański

Satellite view of EPPK